Quemado, NM (87829)

9:58 AM MDT on March 24, 2017 (GMT -0600)
Largo Mesa | | Change Station
Active Advisory: Wind Advisory

Elev 7812 ft 34.26 °N, 108.58 °W | Updated 2 minutes ago

Clear
Clear
35.5 °F
Feels Like 29 °F
N
8.0
Wind Variable Wind from West
Gusts 17.0 mph

Today
High -- | Low -- °F
--% Chance of Precip.
Yesterday
High -- | Low -- °F
Precip. -- in
Pressure 30.14 in
Visibility 10.0 miles
Clouds Clear
Windchill 29 °F
Dew Point 24 °F
Humidity 62%
Rainfall 0.00 in
Snow Depth Not available.
7:11 AM 7:29 PM
Waning Crescent, 14% visible
METAR KSJN 241554Z AUTO 29014KT 10SM CLR 08/M03 A3022 RMK AO2 SLP206 T00831028 TSNO
Pressure 30.14 in
Visibility 10.0 miles
Clouds Clear
Windchill 29 °F
Dew Point 24 °F
Humidity 62%
Rainfall 0.00 in
Snow Depth Not available.
7:11 AM 7:29 PM
Waning Crescent, 14% visible
METAR KSJN 241554Z AUTO 29014KT 10SM CLR 08/M03 A3022 RMK AO2 SLP206 T00831028 TSNO

Get Your Daily Forecast Email!

Thanks for signing up!

Be on the lookout for a verification email in your inbox.

You'll start receiving severe weather alerts in your inbox..

×

10-Day Weather Forecast

Almanac

Astronomy

Mar. 24, 2017 Rise Set
Actual Time
Civil Twilight
Nautical Twilight
Astronomical Twilight
Moon
Length of Visible Light
Length of Day
Tomorrow will be .
, % of the Moon is Illuminated

Today's Extremes

State Highs State Lows

Community

WunderPhotos

Upload Photos

1,962,540 photos uploaded!

WunderBlog® & News

Nearby

Air Quality

  Air Quality AQ Index Pollutant
Not available.

Snow Depth

Station Depth Elevation

Earthquake Activity

City Distance Mag. Time & Date
Minimum magnitude displayed is 2.5.

Earthquake Activity

City Distance Mag. Time & Date
Minimum magnitude displayed is 2.5.

Coastal Water Temperatures

Place Temperature

Stations

Nearby Weather Stations

Station Location Temp. Windchill Dew Point Humidity Wind Precip. Elev Updated Type
                   

Watches & Warnings

Wind Advisory
Issued: 3:34 AM MDT Mar. 24, 2017 – National Weather Service

... Wind Advisory remains in effect until 7 PM MDT this evening...

* location... middle and lower Rio Grande Valley including the
Albuquerque Metro area, as well as the upper Tularosa basin
and south Central Highlands.

* Winds... west winds of 15 to 25 mph with occasional gusts of 35
mph increasing to 25 to 35 mph with gusts to 50 mph late this
morning.

* Timing... breezy to windy conditions will continue through late
morning with stronger winds expected from late morning through
dusk.

* Visibility... dropping to 3 to 5 miles at times in dust prone
locations.

* Local impacts... unsecured objects may become airborne. Cross
winds will pose difficult driving conditions, especially for
high profile vehicles.

Precautionary/preparedness actions...

Motorists should exercise caution while travelling. Sudden gusts
of wind may cause you to lose control of your vehicle. Extra
attention should be given to cross winds.